createdAt,value
2017-07-10T00:02:24.346Z,17.60
2017-07-10T00:04:50.385Z,17.60
2017-07-10T00:07:16.410Z,17.50
2017-07-10T00:09:42.462Z,17.60
2017-07-10T00:12:08.488Z,17.60
2017-07-10T00:14:34.531Z,17.70
2017-07-10T00:17:00.578Z,17.60
2017-07-10T00:19:27.349Z,17.50
2017-07-10T00:21:53.378Z,17.50
2017-07-10T00:24:19.397Z,17.50
2017-07-10T00:26:46.189Z,17.50
2017-07-10T00:29:12.239Z,17.40
2017-07-10T00:31:38.280Z,17.50
2017-07-10T00:34:04.329Z,17.30
2017-07-10T00:36:30.386Z,17.30
2017-07-10T00:38:57.154Z,17.50
2017-07-10T00:41:23.206Z,17.40
2017-07-10T00:43:49.975Z,17.40
2017-07-10T00:46:15.998Z,17.30
2017-07-10T00:48:42.043Z,17.20
2017-07-10T00:51:08.065Z,17.30
2017-07-10T00:53:34.864Z,17.30
2017-07-10T00:56:00.893Z,17.30
2017-07-10T00:58:27.333Z,17.20
2017-07-10T01:00:53.389Z,17.30
2017-07-10T01:03:19.425Z,17.30
2017-07-10T01:05:46.200Z,17.30
2017-07-10T01:08:12.237Z,17.30
2017-07-10T01:10:38.262Z,17.40
2017-07-10T01:13:04.338Z,17.30
2017-07-10T01:15:30.359Z,17.30
2017-07-10T01:17:56.377Z,17.20
2017-07-10T01:20:22.434Z,17.20
2017-07-10T01:22:48.484Z,17.20
2017-07-10T01:25:14.749Z,17.20
2017-07-10T01:27:40.775Z,17.20
2017-07-10T01:30:06.805Z,17.20
2017-07-10T01:32:32.838Z,17.10
2017-07-10T01:34:58.889Z,17.10
2017-07-10T01:37:24.947Z,17.10
2017-07-10T01:39:50.989Z,17.10
2017-07-10T01:42:17.026Z,17.10
2017-07-10T01:44:43.098Z,17.10
2017-07-10T01:47:09.901Z,17.10
2017-07-10T01:49:35.942Z,17.10
2017-07-10T01:52:02.701Z,17.00
2017-07-10T01:54:28.735Z,17.00
2017-07-10T01:56:54.798Z,17.00
2017-07-10T01:59:20.884Z,17.00
2017-07-10T02:01:46.938Z,17.00
2017-07-10T02:04:12.961Z,17.00
2017-07-10T02:06:39.002Z,17.00
2017-07-10T02:09:05.051Z,16.90
2017-07-10T02:11:31.090Z,16.80
2017-07-10T02:13:57.110Z,16.80
2017-07-10T02:16:23.157Z,16.90
2017-07-10T02:18:49.922Z,16.60
2017-07-10T02:21:15.974Z,16.60
2017-07-10T02:23:42.766Z,16.70
2017-07-10T02:26:08.797Z,16.70
2017-07-10T02:28:34.863Z,16.60
2017-07-10T02:31:00.889Z,16.60
2017-07-10T02:33:26.938Z,16.50
2017-07-10T02:35:52.985Z,16.50
2017-07-10T02:38:19.024Z,16.50
2017-07-10T02:40:45.049Z,16.50
2017-07-10T02:43:11.086Z,16.60
2017-07-10T02:45:37.853Z,16.50
2017-07-10T02:48:03.882Z,16.50
2017-07-10T02:50:29.938Z,16.50
2017-07-10T02:52:55.980Z,16.50
2017-07-10T02:55:22.013Z,16.50
2017-07-10T02:57:48.040Z,16.50
2017-07-10T03:00:14.849Z,16.60
2017-07-10T03:02:40.924Z,16.60
2017-07-10T03:05:06.974Z,16.50
2017-07-10T03:07:33.010Z,16.60
2017-07-10T03:09:59.090Z,16.70
2017-07-10T03:12:25.119Z,16.70
2017-07-10T03:14:51.930Z,16.70
2017-07-10T03:17:17.986Z,16.70
2017-07-10T03:19:44.054Z,16.60
2017-07-10T03:22:10.833Z,16.70
2017-07-10T03:24:36.907Z,16.70
2017-07-10T03:27:03.682Z,16.60
2017-07-10T03:29:29.721Z,16.60
2017-07-10T03:31:56.537Z,16.60
2017-07-10T03:34:22.576Z,16.60
2017-07-10T03:36:49.388Z,16.60
2017-07-10T03:39:16.158Z,16.50
2017-07-10T03:41:42.200Z,16.50
2017-07-10T03:44:08.221Z,16.60
2017-07-10T03:46:34.249Z,16.60
2017-07-10T03:49:00.284Z,16.70
2017-07-10T03:51:26.368Z,16.80
2017-07-10T03:53:52.422Z,16.80
2017-07-10T03:56:18.459Z,16.70
2017-07-10T03:58:44.530Z,16.60
2017-07-10T04:01:10.576Z,16.70
2017-07-10T04:03:36.634Z,16.70
2017-07-10T04:06:02.681Z,16.70
2017-07-10T04:08:28.734Z,16.70
2017-07-10T04:10:55.529Z,16.70
2017-07-10T04:13:21.578Z,16.60
2017-07-10T04:15:48.374Z,16.70
2017-07-10T04:18:14.434Z,16.70
2017-07-10T04:20:40.482Z,16.60
2017-07-10T04:23:06.509Z,16.60
2017-07-10T04:25:33.294Z,16.50
2017-07-10T04:27:59.344Z,16.50
2017-07-10T04:30:26.130Z,16.50
2017-07-10T04:32:52.154Z,16.50
2017-07-10T04:35:18.189Z,16.60
2017-07-10T04:37:44.229Z,16.70
2017-07-10T04:40:10.306Z,16.80
2017-07-10T04:42:36.336Z,16.80
2017-07-10T04:45:03.105Z,16.90
2017-07-10T04:47:29.166Z,16.90
2017-07-10T04:49:55.959Z,17.00
2017-07-10T04:52:21.993Z,17.00
2017-07-10T04:54:48.761Z,17.10
2017-07-10T04:57:14.801Z,17.10
2017-07-10T04:59:40.837Z,17.20
2017-07-10T05:02:07.602Z,17.30
2017-07-10T05:04:33.645Z,17.30
2017-07-10T05:06:59.721Z,17.30
2017-07-10T05:09:25.754Z,17.40
2017-07-10T05:11:51.793Z,17.50
2017-07-10T05:14:17.824Z,17.60
2017-07-10T05:16:43.860Z,17.60
2017-07-10T05:19:09.898Z,17.60
2017-07-10T05:21:35.925Z,17.80
2017-07-10T05:24:01.961Z,17.80
2017-07-10T05:26:28.022Z,17.90
2017-07-10T05:28:54.066Z,18.10
2017-07-10T05:31:20.842Z,18.10
2017-07-10T05:33:47.085Z,18.10
2017-07-10T05:36:13.130Z,18.10
2017-07-10T05:38:39.160Z,18.30
2017-07-10T05:41:05.229Z,18.20
2017-07-10T05:43:32.019Z,18.40
2017-07-10T05:45:58.090Z,18.40
2017-07-10T05:48:24.138Z,18.50
2017-07-10T05:50:50.177Z,18.40
2017-07-10T05:53:16.953Z,18.40
2017-07-10T05:55:42.989Z,18.40
2017-07-10T05:58:09.017Z,18.50
2017-07-10T06:00:35.804Z,18.70
2017-07-10T06:03:01.833Z,18.60
2017-07-10T06:05:27.897Z,18.70
2017-07-10T06:07:53.914Z,18.50
2017-07-10T06:10:19.962Z,18.60
2017-07-10T06:12:46.013Z,18.70
2017-07-10T06:15:12.122Z,18.70
2017-07-10T06:17:38.169Z,18.70
2017-07-10T06:20:04.219Z,18.90
2017-07-10T06:22:31.033Z,19.00
2017-07-10T06:24:57.822Z,18.90
2017-07-10T06:27:23.894Z,18.90
2017-07-10T06:29:50.049Z,19.00
2017-07-10T06:32:16.113Z,19.00
2017-07-10T06:34:42.150Z,19.00
2017-07-10T06:37:08.226Z,19.00
2017-07-10T06:39:35.018Z,18.80
2017-07-10T06:42:01.059Z,18.80
2017-07-10T06:44:27.107Z,18.90
2017-07-10T06:46:53.161Z,19.00
2017-07-10T06:49:19.958Z,19.00
2017-07-10T06:51:46.070Z,18.90
2017-07-10T06:54:12.176Z,18.90
2017-07-10T06:56:38.247Z,18.80
2017-07-10T06:59:04.294Z,18.80
2017-07-10T07:01:30.325Z,18.70
2017-07-10T07:03:56.349Z,18.90
2017-07-10T07:06:22.382Z,19.00
2017-07-10T07:08:48.418Z,19.00
2017-07-10T07:11:14.486Z,19.00
2017-07-10T07:13:40.537Z,19.00
2017-07-10T07:16:06.574Z,18.90
2017-07-10T07:18:32.602Z,18.90
2017-07-10T07:20:58.634Z,19.00
2017-07-10T07:23:24.669Z,19.00
2017-07-10T07:25:50.705Z,19.00
2017-07-10T07:28:16.730Z,19.00
2017-07-10T07:30:42.774Z,19.00
2017-07-10T07:33:08.810Z,19.00
2017-07-10T07:35:34.835Z,18.90
2017-07-10T07:38:00.858Z,18.90
2017-07-10T07:40:26.877Z,18.90
2017-07-10T07:42:52.925Z,18.80
2017-07-10T07:45:18.955Z,18.70
2017-07-10T07:47:45.009Z,18.70
2017-07-10T07:50:11.802Z,18.80
2017-07-10T07:52:37.842Z,18.70
2017-07-10T07:55:03.881Z,18.80
2017-07-10T07:57:29.941Z,18.90
2017-07-10T07:59:56.086Z,18.90
2017-07-10T08:02:22.114Z,18.80
2017-07-10T08:04:48.142Z,18.80
2017-07-10T08:07:14.154Z,18.60
2017-07-10T08:09:40.190Z,18.70
2017-07-10T08:12:06.254Z,18.70
2017-07-10T08:14:32.297Z,18.80
2017-07-10T08:16:58.341Z,18.80
2017-07-10T08:19:25.118Z,18.70
2017-07-10T08:21:51.154Z,18.70
2017-07-10T08:24:17.232Z,18.70
2017-07-10T08:26:43.993Z,18.60
2017-07-10T08:29:10.145Z,18.60
2017-07-10T08:31:36.195Z,18.60
2017-07-10T08:34:02.237Z,18.60
2017-07-10T08:36:29.005Z,18.80
2017-07-10T08:38:55.034Z,18.80
2017-07-10T08:41:21.078Z,18.90
2017-07-10T08:43:47.107Z,19.00
2017-07-10T08:46:13.142Z,19.00
2017-07-10T08:48:39.198Z,19.00
2017-07-10T08:51:05.970Z,19.00
2017-07-10T08:53:32.041Z,19.00
2017-07-10T08:55:58.832Z,18.90
2017-07-10T08:58:24.902Z,18.90
2017-07-10T09:00:50.953Z,18.90
2017-07-10T09:03:17.004Z,18.90
2017-07-10T09:05:43.801Z,18.90
2017-07-10T09:08:09.829Z,18.90
2017-07-10T09:10:36.610Z,19.00
2017-07-10T09:13:02.657Z,19.00
2017-07-10T09:15:28.717Z,19.10
2017-07-10T09:17:54.778Z,19.20
2017-07-10T09:20:21.602Z,19.30
2017-07-10T09:22:48.389Z,19.30
2017-07-10T09:25:14.804Z,19.30
2017-07-10T09:27:40.878Z,19.30
2017-07-10T09:30:06.916Z,19.30
2017-07-10T09:32:32.985Z,19.30
2017-07-10T09:34:59.754Z,19.10
2017-07-10T09:37:25.806Z,19.10
2017-07-10T09:39:51.837Z,19.00
2017-07-10T09:42:17.861Z,18.90
2017-07-10T09:44:43.942Z,18.80
2017-07-10T09:47:10.718Z,18.60
2017-07-10T09:49:36.757Z,18.50
2017-07-10T09:52:02.789Z,18.50
2017-07-10T09:54:29.565Z,18.40
2017-07-10T09:56:55.589Z,18.40
2017-07-10T09:59:21.642Z,18.40
2017-07-10T10:01:47.672Z,18.30
2017-07-10T10:04:13.706Z,18.20
2017-07-10T10:06:39.738Z,18.30
2017-07-10T10:09:06.513Z,18.40
2017-07-10T10:11:32.546Z,18.40
2017-07-10T10:13:58.582Z,18.50
2017-07-10T10:16:24.609Z,18.50
2017-07-10T10:18:51.378Z,18.50
2017-07-10T10:21:17.402Z,18.50
2017-07-10T10:23:43.421Z,18.50
2017-07-10T10:26:09.489Z,18.50
2017-07-10T10:28:35.530Z,18.50
2017-07-10T10:31:01.604Z,18.60
2017-07-10T10:33:27.662Z,18.60
2017-07-10T10:35:53.697Z,18.70
2017-07-10T10:38:20.490Z,18.90
2017-07-10T10:40:46.513Z,18.90
2017-07-10T10:43:13.359Z,18.80
2017-07-10T10:45:40.149Z,18.90
2017-07-10T10:48:06.164Z,18.80
2017-07-10T10:50:39.158Z,18.80
2017-07-10T10:53:05.939Z,18.80
2017-07-10T10:55:31.965Z,18.80
2017-07-10T10:57:57.999Z,18.80
2017-07-10T11:00:39.745Z,18.60
2017-07-10T11:03:05.795Z,18.60
2017-07-10T11:05:31.826Z,18.60
2017-07-10T11:07:57.873Z,18.70
2017-07-10T11:10:23.931Z,18.60
2017-07-10T11:12:49.961Z,18.60
2017-07-10T11:15:16.045Z,18.70
2017-07-10T11:17:42.102Z,18.70
2017-07-10T11:20:08.137Z,18.80
2017-07-10T11:22:34.908Z,18.80
2017-07-10T11:25:00.941Z,18.80
2017-07-10T11:27:27.007Z,18.70
2017-07-10T11:29:53.092Z,18.70
2017-07-10T11:32:19.894Z,18.60
2017-07-10T11:34:45.933Z,18.60
2017-07-10T11:37:12.714Z,18.60
2017-07-10T11:39:38.746Z,18.60
2017-07-10T11:42:04.822Z,18.70
2017-07-10T11:44:30.858Z,18.80
2017-07-10T11:46:56.897Z,18.80
2017-07-10T11:49:22.946Z,18.90
2017-07-10T11:51:49.014Z,18.90
2017-07-10T11:54:15.794Z,18.90
2017-07-10T11:56:41.869Z,18.90
2017-07-10T11:59:07.945Z,18.90
2017-07-10T12:01:34.042Z,18.90
2017-07-10T12:04:00.145Z,18.90
2017-07-10T12:06:26.207Z,18.80
2017-07-10T12:08:52.281Z,18.80
2017-07-10T12:11:18.345Z,18.70
2017-07-10T12:13:44.386Z,18.70
2017-07-10T12:16:10.915Z,18.70
2017-07-10T12:18:36.974Z,18.70
2017-07-10T12:21:02.994Z,18.70
2017-07-10T12:23:29.034Z,18.70
2017-07-10T12:25:55.089Z,18.70
2017-07-10T12:28:21.117Z,18.70
2017-07-10T12:30:47.153Z,18.70
2017-07-10T12:33:13.177Z,18.70
2017-07-10T12:35:39.210Z,18.60
2017-07-10T12:38:05.994Z,18.60
2017-07-10T12:40:32.054Z,18.50
2017-07-10T12:42:58.826Z,18.50
2017-07-10T12:45:24.874Z,18.50
2017-07-10T12:47:50.898Z,18.50
2017-07-10T12:50:17.664Z,18.50
2017-07-10T12:52:43.690Z,18.50
2017-07-10T12:55:09.729Z,18.50
2017-07-10T12:57:36.539Z,18.50
2017-07-10T13:00:02.603Z,18.50
2017-07-10T13:02:28.646Z,18.50
2017-07-10T13:04:54.661Z,18.50
2017-07-10T13:07:20.699Z,18.60
2017-07-10T13:09:46.747Z,18.60
2017-07-10T13:12:12.823Z,18.60
2017-07-10T13:14:39.599Z,18.50
2017-07-10T13:17:05.638Z,18.50
2017-07-10T13:19:31.673Z,18.40
2017-07-10T13:21:57.694Z,18.40
2017-07-10T13:24:23.749Z,18.40
2017-07-10T13:26:49.787Z,18.40
2017-07-10T13:29:16.563Z,18.20
2017-07-10T13:31:42.613Z,18.20
2017-07-10T13:34:09.385Z,18.20
2017-07-10T13:36:35.426Z,18.20
2017-07-10T13:39:01.460Z,18.20
2017-07-10T13:41:28.261Z,18.10
2017-07-10T13:43:54.322Z,18.10
2017-07-10T13:46:20.350Z,18.10
2017-07-10T13:48:46.386Z,18.10
2017-07-10T13:51:12.415Z,18.00
2017-07-10T13:53:38.436Z,17.90
2017-07-10T13:56:05.197Z,17.90
2017-07-10T13:58:31.210Z,17.90
2017-07-10T14:00:57.253Z,17.90
2017-07-10T14:03:23.265Z,17.90
2017-07-10T14:05:49.294Z,17.80
2017-07-10T14:08:16.049Z,17.80
2017-07-10T14:10:42.099Z,17.90
2017-07-10T14:13:08.146Z,17.80
2017-07-10T14:15:34.149Z,17.80
2017-07-10T14:18:00.181Z,17.70
2017-07-10T14:20:26.202Z,17.70
2017-07-10T14:22:52.230Z,17.70
2017-07-10T14:25:18.254Z,17.80
2017-07-10T14:27:44.290Z,17.80
2017-07-10T14:30:11.052Z,17.90
2017-07-10T14:32:37.080Z,17.90
2017-07-10T14:35:03.125Z,17.90
2017-07-10T14:37:29.902Z,18.00
2017-07-10T14:39:56.055Z,17.90
2017-07-10T14:42:22.833Z,17.90
2017-07-10T14:44:48.874Z,18.10
2017-07-10T14:47:14.921Z,18.20
2017-07-10T14:49:40.940Z,18.10
2017-07-10T14:52:06.967Z,18.00
2017-07-10T14:54:33.033Z,18.00
2017-07-10T14:56:59.082Z,17.90
2017-07-10T14:59:25.138Z,17.80
2017-07-10T15:01:51.190Z,17.80
2017-07-10T15:04:17.241Z,17.80
2017-07-10T15:06:43.291Z,17.90
2017-07-10T15:09:09.350Z,18.00
2017-07-10T15:11:35.381Z,18.00
2017-07-10T15:14:01.441Z,18.10
2017-07-10T15:16:27.462Z,18.20
2017-07-10T15:18:53.483Z,18.20
2017-07-10T15:21:19.518Z,18.20
2017-07-10T15:23:45.537Z,18.20
2017-07-10T15:26:12.333Z,18.40
2017-07-10T15:28:38.369Z,18.40
2017-07-10T15:31:05.138Z,18.40
2017-07-10T15:33:31.198Z,18.30
2017-07-10T15:35:58.015Z,18.40
2017-07-10T15:38:24.051Z,18.40
2017-07-10T15:40:50.138Z,18.40
2017-07-10T15:43:16.921Z,18.40
2017-07-10T15:45:42.949Z,18.40
2017-07-10T15:48:09.014Z,18.50
2017-07-10T15:50:35.054Z,18.60
2017-07-10T15:53:01.089Z,18.50
2017-07-10T15:55:27.134Z,18.50
2017-07-10T15:57:53.178Z,18.60
2017-07-10T16:00:19.230Z,18.60
2017-07-10T16:02:46.130Z,18.70
2017-07-10T16:05:12.180Z,18.70
2017-07-10T16:07:38.961Z,18.70
2017-07-10T16:10:04.997Z,18.60
2017-07-10T16:12:31.016Z,18.70
2017-07-10T16:14:57.798Z,18.60
2017-07-10T16:17:23.837Z,18.60
2017-07-10T16:19:49.869Z,18.70
2017-07-10T16:22:16.653Z,18.80
2017-07-10T16:24:42.690Z,18.80
2017-07-10T16:27:08.717Z,19.00
2017-07-10T16:29:34.745Z,19.10
2017-07-10T16:32:00.762Z,19.20
2017-07-10T16:34:26.781Z,19.30
2017-07-10T16:36:52.805Z,19.30
2017-07-10T16:39:18.842Z,19.30
2017-07-10T16:41:45.598Z,19.30
2017-07-10T16:44:11.629Z,19.30
2017-07-10T16:46:37.746Z,19.40
2017-07-10T16:49:03.774Z,19.40
2017-07-10T16:51:29.801Z,19.30
2017-07-10T16:53:55.854Z,19.30
2017-07-10T16:56:21.890Z,19.10
2017-07-10T16:58:47.943Z,19.00
2017-07-10T17:01:14.017Z,18.90
2017-07-10T17:03:40.054Z,18.90
2017-07-10T17:06:06.821Z,18.80
2017-07-10T17:08:32.857Z,18.80
2017-07-10T17:10:58.893Z,18.80
2017-07-10T17:13:25.670Z,18.80
2017-07-10T17:15:51.734Z,18.80
2017-07-10T17:18:17.769Z,18.90
2017-07-10T17:20:43.811Z,19.00
2017-07-10T17:23:09.841Z,19.10
2017-07-10T17:25:36.703Z,19.10
2017-07-10T17:28:02.750Z,19.10
2017-07-10T17:30:28.825Z,19.00
2017-07-10T17:32:54.866Z,19.00
2017-07-10T17:35:20.921Z,19.00
2017-07-10T17:37:47.725Z,19.00
2017-07-10T17:40:13.781Z,19.00
2017-07-10T17:42:40.030Z,19.00
2017-07-10T17:45:06.053Z,19.00
2017-07-10T17:47:32.085Z,19.00
2017-07-10T17:49:58.134Z,19.00
2017-07-10T17:52:24.913Z,19.10
2017-07-10T17:54:50.982Z,19.10
2017-07-10T17:57:17.881Z,19.10
2017-07-10T17:59:44.125Z,19.10
2017-07-10T18:02:10.877Z,19.10
2017-07-10T18:04:51.929Z,19.10
2017-07-10T18:07:32.946Z,19.10
2017-07-10T18:09:58.978Z,19.20
2017-07-10T18:12:25.003Z,19.20
2017-07-10T18:14:51.066Z,19.10
2017-07-10T18:17:17.197Z,19.10
2017-07-10T18:19:43.988Z,19.10
2017-07-10T18:22:10.013Z,19.00
2017-07-10T18:24:36.037Z,19.10
2017-07-10T18:27:02.794Z,19.10
2017-07-10T18:29:28.854Z,19.10
2017-07-10T18:31:54.877Z,19.10
2017-07-10T18:34:21.637Z,19.00
2017-07-10T18:36:47.667Z,19.00
2017-07-10T18:39:13.693Z,19.00
2017-07-10T18:41:39.745Z,19.00
2017-07-10T18:44:05.769Z,19.00
2017-07-10T18:46:31.794Z,18.90
2017-07-10T18:48:57.867Z,18.80
2017-07-10T18:51:24.654Z,18.80
2017-07-10T18:53:50.674Z,18.80
2017-07-10T18:56:16.742Z,18.60
2017-07-10T18:58:42.782Z,18.60
2017-07-10T19:01:08.828Z,18.60
2017-07-10T19:03:35.658Z,18.50
2017-07-10T19:06:02.456Z,18.40
2017-07-10T19:08:28.494Z,18.40
2017-07-10T19:10:54.527Z,18.40
2017-07-10T19:13:20.550Z,18.40
2017-07-10T19:15:46.605Z,18.30
2017-07-10T19:18:13.580Z,18.30
2017-07-10T19:20:40.181Z,18.30
2017-07-10T19:23:06.212Z,18.30
2017-07-10T19:25:32.225Z,18.40
2017-07-10T19:27:58.295Z,18.30
2017-07-10T19:30:24.338Z,18.30
2017-07-10T19:32:50.369Z,18.20
2017-07-10T19:35:16.429Z,18.20
2017-07-10T19:37:42.461Z,18.20
2017-07-10T19:40:08.507Z,18.20
2017-07-10T19:42:34.574Z,18.20
2017-07-10T19:45:00.683Z,18.20
2017-07-10T19:47:26.715Z,18.20
2017-07-10T19:49:52.762Z,18.20
2017-07-10T19:52:18.809Z,18.10
2017-07-10T19:54:51.914Z,18.10
2017-07-10T19:57:17.933Z,18.10
2017-07-10T19:59:43.979Z,18.00
2017-07-10T20:02:10.033Z,18.00
2017-07-10T20:04:36.066Z,17.90
2017-07-10T20:07:02.097Z,17.90
2017-07-10T20:09:28.917Z,17.80
2017-07-10T20:11:54.973Z,17.80
2017-07-10T20:14:21.022Z,17.80
2017-07-10T20:16:47.085Z,17.70
2017-07-10T20:19:13.120Z,17.80
2017-07-10T20:21:39.159Z,17.80
2017-07-10T20:24:05.994Z,17.70
2017-07-10T20:26:33.004Z,17.60
2017-07-10T20:28:59.075Z,17.60
2017-07-10T20:31:25.118Z,17.50
2017-07-10T20:33:51.442Z,17.40
2017-07-10T20:36:17.505Z,17.50
2017-07-10T20:38:43.545Z,17.40
2017-07-10T20:41:09.586Z,17.40
2017-07-10T20:43:35.689Z,17.40
2017-07-10T20:46:02.457Z,17.40
2017-07-10T20:48:28.514Z,17.40
2017-07-10T20:50:54.603Z,17.30
2017-07-10T20:53:20.662Z,17.30
2017-07-10T20:55:46.718Z,17.30
2017-07-10T20:58:12.789Z,17.30
2017-07-10T21:00:38.822Z,17.20
2017-07-10T21:03:04.854Z,17.20
2017-07-10T21:05:30.886Z,17.10
2017-07-10T21:07:57.679Z,17.00
2017-07-10T21:10:23.744Z,17.00
2017-07-10T21:12:49.793Z,17.00
2017-07-10T21:15:15.830Z,17.00
2017-07-10T21:17:41.886Z,17.00
2017-07-10T21:20:07.959Z,17.00
2017-07-10T21:22:34.749Z,16.90
2017-07-10T21:25:00.818Z,16.90
2017-07-10T21:27:41.803Z,16.90
2017-07-10T21:30:07.888Z,16.90
2017-07-10T21:32:33.925Z,16.90
2017-07-10T21:34:59.982Z,16.80
2017-07-10T21:37:27.265Z,16.80
2017-07-10T21:39:53.713Z,16.80
2017-07-10T21:42:20.558Z,16.70
2017-07-10T21:44:46.617Z,16.60
2017-07-10T21:47:12.662Z,16.70
2017-07-10T21:49:38.695Z,16.70
2017-07-10T21:52:05.510Z,16.60
2017-07-10T21:54:32.293Z,16.60
2017-07-10T21:56:58.370Z,16.60
2017-07-10T21:59:24.413Z,16.60
2017-07-10T22:01:50.461Z,16.60
2017-07-10T22:04:16.494Z,16.60
2017-07-10T22:06:43.284Z,16.50
2017-07-10T22:09:09.318Z,16.50
2017-07-10T22:11:36.102Z,16.40
2017-07-10T22:14:02.133Z,16.40
2017-07-10T22:16:28.157Z,16.40
2017-07-10T22:18:54.181Z,16.30
2017-07-10T22:21:20.966Z,16.30
2017-07-10T22:23:47.016Z,16.20
2017-07-10T22:26:13.786Z,16.30
2017-07-10T22:28:39.857Z,16.30
2017-07-10T22:31:05.905Z,16.20
2017-07-10T22:33:31.934Z,16.20
2017-07-10T22:35:57.978Z,16.10
2017-07-10T22:38:24.002Z,16.10
2017-07-10T22:40:50.025Z,16.10
2017-07-10T22:43:16.037Z,16.10
2017-07-10T22:45:42.069Z,16.10
2017-07-10T22:48:08.088Z,16.00
2017-07-10T22:50:34.877Z,16.00
2017-07-10T22:53:00.905Z,16.00
2017-07-10T22:55:26.947Z,16.00
2017-07-10T22:57:52.970Z,16.00
2017-07-10T23:00:19.009Z,15.90
2017-07-10T23:02:45.087Z,15.70
2017-07-10T23:05:11.133Z,15.80
2017-07-10T23:07:37.182Z,15.80
2017-07-10T23:10:03.961Z,15.60
2017-07-10T23:12:30.000Z,15.60
2017-07-10T23:14:56.026Z,15.70
2017-07-10T23:17:22.818Z,15.80
2017-07-10T23:19:48.846Z,15.80
2017-07-10T23:22:14.896Z,15.70
2017-07-10T23:24:40.933Z,15.60
2017-07-10T23:27:21.979Z,15.60
2017-07-10T23:29:48.045Z,15.60
2017-07-10T23:32:14.100Z,15.60
2017-07-10T23:34:40.146Z,15.50
2017-07-10T23:37:06.202Z,15.50
2017-07-10T23:39:32.229Z,15.50
2017-07-10T23:41:58.253Z,15.50
2017-07-10T23:44:24.273Z,15.50
2017-07-10T23:46:50.309Z,15.60
2017-07-10T23:49:17.085Z,15.50
2017-07-10T23:51:43.110Z,15.50
2017-07-10T23:54:09.152Z,15.60
2017-07-10T23:56:35.169Z,15.60
2017-07-10T23:59:01.221Z,15.70
